.
WxDataArchive / Data Records for 2013-05-26
2013-05-25 May 2013 2013-05-27

Data Records for Sunday, 26 May 2013

Time	Temp	Chill	HIndex	Humid	Dewpt	 Wind 	HiWind	WindDir	Rain 	Barom 
-----	----	-----	------	-----	-----	------	------	-------	-----	----- 
00:00	55.7	55.7	55.7	50	37.3	0	1	90	0.00	30.262 
00:05	55.4	55.4	55.4	50	37.1	0	1	90	0.00	30.262 
00:10	55.1	55.1	55.1	51	37.3	0	0	---	0.00	30.262 
00:15	54.7	54.7	54.7	51	36.9	0	0	---	0.00	30.267 
00:20	54.2	54.2	54.2	52	37.0	0	0	---	0.00	30.267 
00:25	53.6	53.6	53.6	53	36.9	0	0	---	0.00	30.267 
00:30	53.2	53.2	53.2	53	36.5	0	0	---	0.00	30.270 
00:35	52.8	52.8	52.8	54	36.6	0	0	---	0.00	30.270 
00:40	52.3	52.3	52.3	54	36.2	0	0	---	0.00	30.270 
00:45	52.0	52.0	52.0	55	36.3	0	0	---	0.00	30.269 
00:50	51.7	51.7	51.7	55	36.1	0	0	---	0.00	30.269 
00:55	51.3	51.3	51.3	56	36.1	0	0	---	0.00	30.269 
01:00	51.0	51.0	51.0	58	36.7	0	0	---	0.00	30.269 
01:05	50.8	50.8	50.8	59	37.0	0	0	---	0.00	30.269 
01:10	50.4	50.4	50.4	59	36.6	0	0	---	0.00	30.269 
01:15	49.9	49.9	49.9	60	36.6	0	0	---	0.00	30.267 
01:20	49.6	49.6	49.6	60	36.3	0	0	---	0.00	30.267 
01:25	49.4	49.4	49.4	61	36.5	0	0	---	0.00	30.267 
01:30	48.9	48.9	48.9	64	37.3	0	0	---	0.00	30.271 
01:35	48.8	48.8	48.8	66	38.0	0	0	---	0.00	30.271 
01:40	48.6	48.6	48.6	66	37.8	0	0	---	0.00	30.271 
01:45	48.6	48.6	48.6	67	38.1	0	1	90	0.00	30.275 
01:50	48.6	48.6	48.6	66	37.8	0	1	90	0.00	30.275 
01:55	48.5	48.5	48.5	67	38.0	0	0	---	0.00	30.275 
02:00	48.3	48.3	48.3	67	37.9	0	0	---	0.00	30.270 
02:05	48.0	48.0	48.0	67	37.6	0	0	---	0.00	30.270 
02:10	47.9	47.9	47.9	67	37.5	0	0	---	0.00	30.270 
02:15	47.7	47.7	47.7	67	37.3	0	0	---	0.00	30.264 
02:20	47.4	47.4	47.4	68	37.4	0	0	---	0.00	30.264 
02:25	47.3	47.3	47.3	69	37.7	0	2	90	0.00	30.264 
02:30	47.0	47.0	47.0	70	37.7	0	2	90	0.00	30.274 
02:35	46.8	46.8	46.8	69	37.2	0	1	90	0.00	30.274 
02:40	46.8	46.8	46.8	69	37.2	0	0	---	0.00	30.274 
02:45	46.8	46.8	46.8	67	36.4	0	0	---	0.00	30.279 
02:50	47.0	47.0	47.0	66	36.2	0	0	---	0.00	30.279 
02:55	47.0	47.0	47.0	65	35.9	0	0	---	0.00	30.279 
03:00	47.0	47.0	47.0	65	35.9	0	0	---	0.00	30.279 
03:05	46.8	46.8	46.8	66	36.0	0	0	---	0.00	30.279 
03:10	46.7	46.7	46.7	66	36.0	0	0	---	0.00	30.279 
03:15	46.5	46.5	46.5	66	35.8	0	0	---	0.00	30.270 
03:20	46.2	46.2	46.2	68	36.2	0	0	---	0.00	30.270 
03:25	45.8	45.8	45.8	69	36.2	0	0	---	0.00	30.270 
03:30	45.4	45.4	45.4	69	35.8	0	0	---	0.00	30.265 
03:35	45.2	45.2	45.2	69	35.6	0	0	---	0.00	30.265 
03:40	44.9	44.9	44.9	70	35.7	0	0	---	0.00	30.265 
03:45	44.8	44.8	44.8	70	35.6	0	0	---	0.00	30.265 
03:50	44.6	44.6	44.6	71	35.8	0	0	---	0.00	30.265 
03:55	44.6	44.6	44.6	72	36.1	0	0	---	0.00	30.265 
04:00	44.6	44.6	44.6	72	36.1	0	0	---	0.00	30.264 
04:05	44.8	44.8	44.8	72	36.3	0	1	90	0.00	30.264 
04:10	44.9	44.9	44.9	71	36.1	0	2	90	0.00	30.264 
04:15	45.4	45.4	45.4	69	35.8	0	1	90	0.00	30.261 
04:20	45.8	45.8	45.8	69	36.2	0	1	90	0.00	30.261 
04:25	46.0	46.0	46.0	69	36.4	0	0	---	0.00	30.261 
04:30	45.8	45.8	45.8	69	36.2	0	0	---	0.00	30.264 
04:35	45.7	45.7	45.7	69	36.1	0	0	---	0.00	30.264 
04:40	45.5	45.5	45.5	69	35.9	0	0	---	0.00	30.264 
04:45	45.5	45.5	45.5	70	36.3	0	1	90	0.00	30.266 
04:50	45.4	45.4	45.4	70	36.2	0	1	90	0.00	30.266 
04:55	45.4	45.4	45.4	69	35.8	0	1	90	0.00	30.266 
05:00	45.4	45.4	45.4	68	35.5	0	1	90	0.00	30.268 
05:05	45.4	45.4	45.4	68	35.5	0	1	90	0.00	30.268 
05:10	45.5	45.5	45.5	68	35.6	0	1	90	0.00	30.268 
05:15	45.5	45.5	45.5	67	35.2	0	1	90	0.00	30.272 
05:20	45.4	45.4	45.4	67	35.1	0	1	90	0.00	30.272 
05:25	45.4	45.4	45.4	67	35.1	0	1	90	0.00	30.272 
05:30	45.4	45.4	45.4	67	35.1	0	0	---	0.00	30.275 
05:35	45.2	45.2	45.2	67	34.9	0	0	---	0.00	30.275 
05:40	44.9	44.9	44.9	68	35.0	0	0	---	0.00	30.275 
05:45	44.6	44.6	44.6	69	35.1	0	0	---	0.00	30.279 
05:50	44.3	44.3	44.3	69	34.8	0	0	---	0.00	30.279 
05:55	43.9	43.9	43.9	70	34.8	0	0	---	0.00	30.279 
06:00	43.6	43.6	43.6	71	34.8	0	0	---	0.00	30.281 
06:05	43.3	43.3	43.3	71	34.5	0	0	---	0.00	30.281 
06:10	43.1	43.1	43.1	72	34.7	0	0	---	0.00	30.281 
06:15	42.9	42.9	42.9	73	34.9	0	0	---	0.00	30.288 
06:20	42.8	42.8	42.8	74	35.1	0	0	---	0.00	30.288 
06:25	42.6	42.6	42.6	75	35.2	0	0	---	0.00	30.288 
06:30	42.5	42.5	42.5	75	35.1	0	0	---	0.00	30.296 
06:35	42.6	42.6	42.6	76	35.6	0	0	---	0.00	30.296 
06:40	42.6	42.6	42.6	77	35.9	0	0	---	0.00	30.296 
06:45	42.6	42.6	42.6	77	35.9	0	0	---	0.00	30.291 
06:50	42.8	42.8	42.8	78	36.4	0	0	---	0.00	30.291 
06:55	42.9	42.9	42.9	79	36.8	0	1	90	0.00	30.291 
07:00	43.6	43.6	43.6	76	36.5	0	3	90	0.00	30.285 
07:05	44.6	44.6	44.6	73	36.5	0	2	90	0.00	30.285 
07:10	45.4	45.4	45.4	70	36.2	1	3	68	0.00	30.285 
07:15	46.1	46.1	46.1	69	36.5	1	3	68	0.00	30.295 
07:20	46.8	46.8	46.8	68	36.8	0	2	68	0.00	30.295 
07:25	47.4	47.4	47.4	66	36.6	1	4	68	0.00	30.295 
07:30	48.0	48.0	48.0	65	36.8	1	3	68	0.00	30.297 
07:35	48.6	48.6	48.6	65	37.4	1	3	68	0.00	30.297 
07:40	49.1	49.1	49.1	65	37.8	1	2	68	0.00	30.297 
07:45	49.6	49.6	49.6	63	37.5	1	4	68	0.00	30.302 
07:50	50.1	50.1	50.1	64	38.4	0	4	68	0.00	30.302 
07:55	50.8	50.8	50.8	63	38.7	0	1	68	0.00	30.302 
08:00	51.6	51.6	51.6	62	39.0	1	5	68	0.00	30.292 
08:05	51.7	51.7	51.7	61	38.7	1	5	90	0.00	30.292 
08:10	51.9	51.9	51.9	61	38.9	2	5	90	0.00	30.292 
08:15	52.2	52.2	52.2	61	39.2	1	3	90	0.00	30.295 
08:20	52.5	52.5	52.5	60	39.0	2	6	90	0.00	30.295 
08:25	52.9	52.9	52.9	60	39.4	1	2	90	0.00	30.295 
08:30	53.5	53.5	53.5	58	39.1	1	4	90	0.00	30.301 
08:35	54.2	54.2	54.2	58	39.7	1	4	90	0.00	30.301 
08:40	54.5	54.5	54.5	56	39.1	1	4	90	0.00	30.301 
08:45	54.7	54.7	54.7	57	39.8	1	3	68	0.00	30.295 
08:50	54.7	54.7	54.7	54	38.4	1	4	68	0.00	30.295 
08:55	55.7	55.7	55.7	52	38.3	1	4	68	0.00	30.295 
09:00	56.6	56.6	56.6	49	37.7	2	4	68	0.00	30.304 
09:05	57.3	57.3	57.3	48	37.8	2	5	90	0.00	30.304 
09:10	58.0	58.0	58.0	47	37.9	2	5	68	0.00	30.304 
09:15	58.1	58.1	58.1	47	38.0	2	6	90	0.00	30.309 
09:20	58.3	58.3	58.3	46	37.6	3	9	90	0.00	30.309 
09:25	58.3	58.3	58.3	47	38.2	2	5	68	0.00	30.309 
09:30	58.6	58.6	58.6	46	37.9	2	6	68	0.00	30.311 
09:35	58.7	58.7	58.7	47	38.5	1	5	90	0.00	30.311 
09:40	58.9	58.9	58.9	46	38.2	3	6	112	0.00	30.311 
09:45	59.0	59.0	59.0	47	38.8	2	4	90	0.00	30.309 
09:50	59.3	59.3	59.3	44	37.4	2	5	90	0.00	30.309 
09:55	59.5	59.5	59.5	45	38.1	1	4	90	0.00	30.309 
10:00	60.1	60.1	60.1	46	39.2	1	4	90	0.00	30.313 
10:05	60.5	60.5	60.5	45	39.1	1	4	90	0.00	30.313 
10:10	60.5	60.5	60.5	44	38.5	2	6	90	0.00	30.313 
10:15	60.5	60.5	60.5	42	37.3	2	5	68	0.00	30.308 
10:20	60.4	60.4	60.4	42	37.2	3	6	90	0.00	30.308 
10:25	60.2	60.2	60.2	41	36.4	3	7	90	0.00	30.308 
10:30	60.5	60.5	60.5	42	37.3	2	6	90	0.00	30.308 
10:35	60.9	60.9	60.9	43	38.3	2	6	90	0.00	30.308 
10:40	61.3	61.3	61.3	42	38.0	2	7	90	0.00	30.308 
10:45	61.3	61.3	61.3	43	38.6	3	7	90	0.00	30.308 
10:50	61.8	61.8	61.8	43	39.1	2	5	90	0.00	30.308 
10:55	62.3	62.3	62.3	42	38.9	1	6	112	0.00	30.308 
11:00	63.2	63.2	63.2	42	39.7	1	4	112	0.00	30.305 
11:05	64.0	64.0	64.0	39	38.5	1	4	90	0.00	30.305 
11:10	64.2	64.2	64.2	39	38.7	2	4	112	0.00	30.305 
11:15	64.3	64.3	64.3	38	38.1	1	5	90	0.00	30.297 
11:20	64.5	64.5	64.5	39	39.0	1	7	90	0.00	30.297 
11:25	64.3	64.3	64.3	37	37.5	2	7	90	0.00	30.297 
11:30	64.7	64.7	64.7	39	39.2	1	4	90	0.00	30.297 
11:35	65.0	65.0	65.0	40	40.1	2	5	68	0.00	30.297 
11:40	65.2	65.2	65.2	37	38.3	1	4	90	0.00	30.297 
11:45	65.0	65.0	65.0	37	38.1	1	4	112	0.00	30.292 
11:50	65.0	65.0	65.0	35	36.7	3	7	112	0.00	30.292 
11:55	65.0	65.0	65.0	36	37.4	1	4	90	0.00	30.292 
12:00	66.0	66.0	66.0	38	39.7	1	3	90	0.00	30.289 
12:05	66.8	66.8	66.8	35	38.3	1	3	90	0.00	30.289 
12:10	66.8	66.8	66.8	35	38.3	2	6	90	0.00	30.289 
12:15	66.3	66.3	66.3	34	37.1	2	6	90	0.00	30.298 
12:20	66.4	66.4	66.4	35	37.9	2	5	90	0.00	30.298 
12:25	66.6	66.6	66.6	32	35.8	1	4	90	0.00	30.298 
12:30	66.8	66.8	66.8	32	36.0	1	7	90	0.00	30.293 
12:35	66.4	66.4	66.4	32	35.6	2	6	90	0.00	30.293 
12:40	66.1	66.1	66.1	33	36.2	1	4	90	0.00	30.293 
12:45	66.3	66.3	66.3	33	36.3	1	3	90	0.00	30.296 
12:50	66.3	66.3	66.3	32	35.6	0	1	90	0.00	30.296 
12:55	66.4	66.4	66.4	32	35.6	1	3	90	0.00	30.296 
13:00	66.4	66.4	66.4	31	34.8	1	4	90	0.00	30.292 
13:05	66.4	66.4	66.4	34	37.2	1	2	90	0.00	30.292 
13:10	66.4	66.4	66.4	33	36.4	2	6	90	0.00	30.292 
13:15	66.8	66.8	66.8	33	36.8	0	2	90	0.00	30.293 
13:20	67.6	67.6	67.6	35	39.0	0	3	90	0.00	30.293 
13:25	68.1	68.1	68.1	29	34.6	1	3	90	0.00	30.293 
13:30	68.1	68.1	68.1	31	36.3	1	6	90	0.00	30.285 
13:35	67.9	67.9	67.9	30	35.3	1	4	90	0.00	30.285 
13:40	67.9	67.9	67.9	32	36.9	1	3	90	0.00	30.285 
13:45	68.3	68.3	68.3	30	35.7	1	4	90	0.00	30.285 
13:50	68.6	68.6	68.6	30	35.9	1	3	112	0.00	30.285 
13:55	69.1	69.1	69.1	31	37.2	1	4	112	0.00	30.285 
14:00	69.3	69.3	69.3	28	34.8	3	6	112	0.00	30.275 
14:05	69.1	69.1	69.1	30	36.4	2	4	90	0.00	30.275 
14:10	69.1	69.1	69.1	28	34.6	1	6	90	0.00	30.275 
14:15	69.1	69.1	69.1	30	36.4	1	4	90	0.00	30.262 
14:20	69.3	69.3	69.3	29	35.7	2	6	90	0.00	30.262 
14:25	69.4	69.4	69.4	31	37.4	1	2	90	0.00	30.262 
14:30	69.9	69.9	69.9	29	36.2	0	3	90	0.00	30.259 
14:35	70.4	70.4	70.4	29	36.6	1	5	90	0.00	30.259 
14:40	70.4	70.4	70.4	30	37.5	2	5	90	0.00	30.259 
14:45	70.3	70.3	70.3	27	34.7	1	4	90	0.00	30.258 
14:50	69.9	69.9	69.9	28	35.3	1	3	90	0.00	30.258 
14:55	69.6	69.6	69.6	29	35.9	1	3	90	0.00	30.258 
15:00	69.8	69.8	69.8	30	37.0	1	4	90	0.00	30.249 
15:05	70.1	70.1	70.1	28	35.5	2	5	90	0.00	30.249 
15:10	70.3	70.3	70.3	31	38.2	2	4	90	0.00	30.249 
15:15	69.9	69.9	69.9	28	35.3	1	3	112	0.00	30.258 
15:20	69.8	69.8	69.8	28	35.2	1	3	112	0.00	30.258 
15:25	69.9	69.9	69.9	30	37.0	0	1	112	0.00	30.258 
15:30	70.4	70.4	70.4	27	34.8	1	4	112	0.00	30.260 
15:35	70.8	70.8	70.8	28	36.1	0	2	112	0.00	30.260 
15:40	71.1	71.1	71.1	28	36.3	1	2	112	0.00	30.260 
15:45	71.1	71.1	71.1	28	36.3	1	4	112	0.00	30.250 
15:50	70.6	70.6	70.6	27	35.0	1	3	112	0.00	30.250 
15:55	70.4	70.4	70.4	31	38.3	0	0	---	0.00	30.250 
16:00	70.6	70.6	70.6	28	35.9	1	3	112	0.00	30.246 
16:05	70.3	70.3	70.3	27	34.7	1	2	112	0.00	30.246 
16:10	70.1	70.1	70.1	28	35.5	0	3	112	0.00	30.246 
16:15	70.3	70.3	70.3	29	36.5	0	3	112	0.00	30.244 
16:20	70.9	70.9	70.9	27	35.2	0	1	112	0.00	30.244 
16:25	71.8	71.8	71.8	28	36.9	0	3	112	0.00	30.244 
16:30	72.5	72.5	72.5	27	36.6	1	2	112	0.00	30.238 
16:35	72.7	72.7	72.7	26	35.8	1	4	112	0.00	30.238 
16:40	72.1	72.1	72.1	25	34.3	1	5	112	0.00	30.238 
16:45	71.6	71.6	71.6	26	34.9	0	1	112	0.00	30.233 
16:50	71.1	71.1	71.1	26	34.5	1	5	68	0.00	30.233 
16:55	70.9	70.9	70.9	27	35.2	1	4	68	0.00	30.233 
17:00	70.4	70.4	70.4	28	35.7	1	3	68	0.00	30.231 
17:05	69.9	69.9	69.9	27	34.4	0	2	68	0.00	30.231 
17:10	69.8	69.8	69.8	27	34.3	0	1	68	0.00	30.231 
17:15	69.9	69.9	69.9	27	34.4	0	1	68	0.00	30.225 
17:20	70.1	70.1	70.1	28	35.5	0	1	68	0.00	30.225 
17:25	70.1	70.1	70.1	27	34.6	0	2	68	0.00	30.225 
17:30	69.9	69.9	69.9	28	35.3	1	4	68	0.00	30.218 
17:35	69.6	69.6	69.6	27	34.1	1	3	68	0.00	30.218 
17:40	69.4	69.4	69.4	28	34.9	1	5	68	0.00	30.218 
17:45	69.3	69.3	69.3	28	34.8	1	3	68	0.00	30.219 
17:50	69.1	69.1	69.1	28	34.6	2	5	90	0.00	30.219 
17:55	69.1	69.1	69.1	28	34.6	1	4	90	0.00	30.219 
18:00	69.3	69.3	69.3	28	34.8	2	5	90	0.00	30.219 
18:05	69.4	69.4	69.4	28	34.9	1	3	90	0.00	30.219 
18:10	69.4	69.4	69.4	28	34.9	2	4	90	0.00	30.219 
18:15	69.3	69.3	69.3	28	34.8	3	6	90	0.00	30.215 
18:20	69.6	69.6	69.6	28	35.0	1	4	90	0.00	30.215 
18:25	69.8	69.8	69.8	26	33.4	2	4	90	0.00	30.215 
18:30	69.8	69.8	69.8	26	33.4	1	4	90	0.00	30.209 
18:35	69.8	69.8	69.8	25	32.4	2	7	90	0.00	30.209 
18:40	69.8	69.8	69.8	27	34.3	2	5	112	0.00	30.209 
18:45	69.4	69.4	69.4	27	34.0	3	5	90	0.00	30.203 
18:50	69.3	69.3	69.3	26	32.9	2	5	90	0.00	30.203 
18:55	69.1	69.1	69.1	26	32.8	2	4	90	0.00	30.203 
19:00	69.1	69.1	69.1	26	32.8	1	5	90	0.00	30.202 
19:05	68.8	68.8	68.8	25	31.5	2	6	90	0.00	30.202 
19:10	68.6	68.6	68.6	26	32.3	2	5	90	0.00	30.202 
19:15	68.6	68.6	68.6	25	31.4	2	4	90	0.00	30.191 
19:20	68.4	68.4	68.4	25	31.2	2	6	90	0.00	30.191 
19:25	68.4	68.4	68.4	25	31.2	2	6	90	0.00	30.191 
19:30	68.3	68.3	68.3	26	32.1	2	4	135	0.00	30.185 
19:35	68.1	68.1	68.1	26	31.9	1	3	90	0.00	30.185 
19:40	68.1	68.1	68.1	25	30.9	2	4	90	0.00	30.185 
19:45	67.8	67.8	67.8	25	30.7	1	4	90	0.00	30.185 
19:50	67.4	67.4	67.4	26	31.3	1	3	90	0.00	30.185 
19:55	67.1	67.1	67.1	26	31.1	1	3	90	0.00	30.185 
20:00	67.1	67.1	67.1	26	31.1	1	3	90	0.00	30.184 
20:05	67.1	67.1	67.1	26	31.1	2	5	112	0.00	30.184 
20:10	67.3	67.3	67.3	26	31.2	2	4	112	0.00	30.184 
20:15	67.3	67.3	67.3	26	31.2	1	4	112	0.00	30.176 
20:20	67.1	67.1	67.1	26	31.1	1	4	112	0.00	30.176 
20:25	66.9	66.9	66.9	26	30.9	1	5	112	0.00	30.176 
20:30	66.8	66.8	66.8	27	31.7	0	2	112	0.00	30.175 
20:35	66.4	66.4	66.4	27	31.4	1	2	112	0.00	30.175 
20:40	66.3	66.3	66.3	27	31.3	1	2	112	0.00	30.175 
20:45	66.0	66.0	66.0	27	31.1	0	1	112	0.00	30.177 
20:50	65.8	65.8	65.8	28	31.8	0	2	112	0.00	30.177 
20:55	65.6	65.6	65.6	27	30.7	0	1	112	0.00	30.177 
21:00	65.3	65.3	65.3	28	31.4	0	2	112	0.00	30.179 
21:05	65.2	65.2	65.2	28	31.3	0	1	112	0.00	30.179 
21:10	65.0	65.0	65.0	28	31.1	0	2	112	0.00	30.179 
21:15	64.7	64.7	64.7	28	30.8	1	4	112	0.00	30.178 
21:20	64.7	64.7	64.7	27	29.9	0	2	112	0.00	30.178 
21:25	64.5	64.5	64.5	27	29.8	0	2	112	0.00	30.178 
21:30	64.3	64.3	64.3	27	29.6	0	1	112	0.00	30.183 
21:35	64.2	64.2	64.2	28	30.4	0	1	112	0.00	30.183 
21:40	64.0	64.0	64.0	29	31.1	0	1	112	0.00	30.183 
21:45	63.7	63.7	63.7	28	30.0	0	1	112	0.00	30.179 
21:50	63.5	63.5	63.5	29	30.7	0	1	112	0.00	30.179 
21:55	63.5	63.5	63.5	27	28.9	0	2	112	0.00	30.179 
22:00	63.4	63.4	63.4	28	29.7	0	2	112	0.00	30.184 
22:05	63.4	63.4	63.4	28	29.7	0	1	112	0.00	30.184 
22:10	63.2	63.2	63.2	28	29.6	0	0	---	0.00	30.184 
22:15	62.9	62.9	62.9	29	30.2	0	0	---	0.00	30.191 
22:20	62.7	62.7	62.7	31	31.6	0	0	---	0.00	30.191 
22:25	62.3	62.3	62.3	31	31.3	0	0	---	0.00	30.191 
22:30	62.0	62.0	62.0	31	31.0	0	0	---	0.00	30.199 
22:35	61.6	61.6	61.6	31	30.7	0	0	---	0.00	30.199 
22:40	61.3	61.3	61.3	31	30.4	0	0	---	0.00	30.199 
22:45	61.2	61.2	61.2	35	33.3	0	0	---	0.00	30.205 
22:50	61.2	61.2	61.2	31	30.3	0	2	112	0.00	30.205 
22:55	61.3	61.3	61.3	33	32.0	0	1	112	0.00	30.205 
23:00	61.5	61.5	61.5	31	30.6	0	1	112	0.00	30.208 
23:05	61.8	61.8	61.8	30	30.0	0	2	112	0.00	30.208 
23:10	62.0	62.0	62.0	31	31.0	0	2	112	0.00	30.208 
23:15	62.0	62.0	62.0	31	31.0	0	1	112	0.00	30.204 
23:20	62.0	62.0	62.0	31	31.0	0	2	112	0.00	30.204 
23:25	62.0	62.0	62.0	30	30.2	0	2	112	0.00	30.204 
23:30	61.8	61.8	61.8	30	30.0	0	2	112	0.00	30.204 
23:35	61.8	61.8	61.8	30	30.0	1	3	112	0.00	30.204 
23:40	61.8	61.8	61.8	31	30.8	0	2	112	0.00	30.204 
23:45	61.6	61.6	61.6	31	30.7	0	2	112	0.00	30.204 
23:50	61.6	61.6	61.6	31	30.7	0	3	112	0.00	30.204 
23:55	61.5	61.5	61.5	32	31.4	0	2	112	0.00	30.204 

CoCoRaHS
IN-AL-39
A2 Web Hosting
Creative Commons License
GoDaddy
search engine by freefind advanced

loaded 2018-11-16 00:10:10 • last modified 2010-11-18 10:43:29
Privacy PolicyDisclaimer
• wx.awcolley.com is powered by PmWiki v.2002016 •
• all content (unless otherwise noted) © 2018 A W Colley